Hauptseite
METAR-TAF:

METAR-TAF

Flughäfen :

Bristol Airport

Bristol, England

Breite: 51-23N, Länge: 002-43W, Höhe: 189 m

Beobachtung

Neuester Wetterbericht von vor 38 Minuten, um 18:50 UTC
Wind 6 kt aus West/Südwest
Temperatur 16°C
Luftfeuchtigkeit 59%
Luftdruck 1018 hPa
Sichtweite 10 km oder mehr

METAR: EGGD 221850Z AUTO 24006KT 9999 NCD 16/08 Q1018

Zeit: 20:28 (19:28 UTC)

Prognose

Neuester Wetterbericht von vor 2 Stunden und 29 Minuten, um 16:59 UTC
Gültige Prognose vom 22 um 18 UTC bis 23 um 18 UTC
Wind 4 kt aus unterschiedlichen Richtungen
Sichtweite 10 km oder mehr
Leicht bewölkt in der Höhe von 4500 ft
Zeitweise
vom 22 um 18 UTC bis 22 um 22 UTC
Wind 10 kt aus West
Übergehend zu
vom 23 um 10 UTC bis 23 um 13 UTC
Wind 10 kt aus West

TAF: EGGD 221659Z 2218/2318 VRB04KT 9999 FEW045 TEMPO 2218/2222 27010KT BECMG 2310/2313 27010KT

Wetterbeobachtungen und Prognosen von mehr als 4000 Flughäfen (METAR und TAF Bericht).

Die verfügbaren Stationen werden durch gelbe und rote Markierungen auf der Karte dargestellt.

Führen Sie die Maus auf sie, um den Namen der Station zu sehen.

Darauf klicken, um die Beobachtung von Wetterbeobachtungen und Prognosen zu sehen.

Um die Karte zu ändern : klicken Sie auf den grünen Tasten mit einem schwarzen Kreuz Zum Vergrößern, auf den grünen Button mit einem Gedankenstrich zu verkleinern, oder auf die grünen Pfeile für benachbarte Karten.


METAR-TAF: